Time;durP1;ratioP1;P1;durP2;ratioP2;P2;SDS_P1;SDS_P2;PMS_P1;PMS_P2;Temp;Humidity;BMP_temperature;BMP_pressure;BME280_temperature;BME280_humidity;BME280_pressure;Samples;Min_cycle;Max_cycle;Signal;HPM_P1;HPM_P2
2022/01/06 00:00:55;;;;;;;5.28;2.70;;;2.20;99.90;;;;;;5070861;28;20711;-69
2022/01/06 00:03:22;;;;;;;5.85;2.65;;;2.10;99.90;;;;;;5070458;28;20220;-71
2022/01/06 00:05:49;;;;;;;7.05;2.80;;;2.10;99.90;;;;;;5070597;28;20610;-71
2022/01/06 00:08:15;;;;;;;8.93;3.30;;;2.10;99.90;;;;;;5069915;28;20212;-70
2022/01/06 00:10:42;;;;;;;6.85;2.75;;;2.10;99.90;;;;;;5070266;28;20612;-70
2022/01/06 00:13:13;;;;;;;6.35;3.42;;;2.10;99.90;;;;;;5070341;28;20201;-70
2022/01/06 00:15:56;;;;;;;4.82;3.70;;;2.10;99.90;;;;;;5070552;28;20925;-70
2022/01/06 00:18:35;;;;;;;7.30;3.70;;;2.00;99.90;;;;;;5070454;28;20242;-71
2022/01/06 00:23:46;;;;;;;6.30;2.67;;;2.00;99.90;;;;;;5070627;28;20346;-70
2022/01/06 00:26:13;;;;;;;4.13;2.58;;;2.00;99.90;;;;;;5070256;28;20679;-71
2022/01/06 00:28:39;;;;;;;5.53;3.08;;;2.00;99.90;;;;;;5070566;28;20203;-70
2022/01/06 00:31:07;;;;;;;7.82;2.90;;;2.00;99.90;;;;;;5069896;28;20707;-70
2022/01/06 00:33:35;;;;;;;5.10;3.15;;;2.00;99.90;;;;;;5070271;28;20619;-71
2022/01/06 00:36:02;;;;;;;4.43;3.08;;;2.00;99.90;;;;;;5070751;28;20211;-70
2022/01/06 00:38:29;;;;;;;6.88;3.40;;;2.00;99.90;;;;;;5070277;28;20207;-70
2022/01/06 00:40:58;;;;;;;8.30;3.58;;;1.90;99.90;;;;;;5069999;28;20200;-70
2022/01/06 00:43:25;;;;;;;7.38;2.85;;;1.90;99.90;;;;;;5070500;28;20252;-70
2022/01/06 00:45:53;;;;;;;5.07;3.10;;;2.00;99.90;;;;;;5070579;28;20201;-71
2022/01/06 00:48:19;;;;;;;5.15;2.88;;;2.00;99.90;;;;;;5070251;28;20690;-71
2022/01/06 00:50:47;;;;;;;5.68;3.20;;;2.00;99.90;;;;;;5070285;28;20594;-71
2022/01/06 00:53:14;;;;;;;6.30;3.10;;;2.00;99.90;;;;;;5069821;28;20668;-70
2022/01/06 00:55:41;;;;;;;3.13;2.45;;;2.10;99.90;;;;;;5070407;28;20259;-71
2022/01/06 00:58:09;;;;;;;4.80;3.13;;;2.10;99.90;;;;;;5070130;28;20550;-71
2022/01/06 01:00:41;;;;;;;4.32;2.80;;;2.10;99.90;;;;;;5070143;28;20574;-71
2022/01/06 01:03:13;;;;;;;7.30;3.10;;;2.10;99.90;;;;;;5069719;28;20334;-71
2022/01/06 01:05:40;;;;;;;6.97;3.13;;;2.00;99.90;;;;;;5070259;28;20200;-71
2022/01/06 01:08:09;;;;;;;13.50;3.30;;;2.00;99.90;;;;;;5070212;28;20211;-71
2022/01/06 01:10:37;;;;;;;4.85;2.78;;;2.00;99.90;;;;;;5070364;28;20584;-71
2022/01/06 01:13:04;;;;;;;7.70;3.42;;;2.00;99.90;;;;;;5069702;28;20200;-70
2022/01/06 01:15:32;;;;;;;5.22;3.13;;;2.00;99.90;;;;;;5070345;28;20204;-71
2022/01/06 01:18:08;;;;;;;4.63;2.53;;;2.00;99.90;;;;;;5069861;28;20582;-70
2022/01/06 01:20:35;;;;;;;4.38;2.83;;;2.00;99.90;;;;;;5071951;28;20227;-70
2022/01/06 01:23:02;;;;;;;3.78;2.45;;;1.90;99.90;;;;;;5072989;28;20231;-70
2022/01/06 01:25:30;;;;;;;7.43;2.53;;;1.90;99.90;;;;;;5073546;28;20204;-70
2022/01/06 01:27:57;;;;;;;7.63;2.75;;;1.90;99.90;;;;;;5073597;28;20208;-70
2022/01/06 01:30:30;;;;;;;7.60;3.30;;;1.90;99.90;;;;;;5073662;28;20228;-70
2022/01/06 01:32:59;;;;;;;6.82;3.08;;;1.90;99.90;;;;;;5072923;28;20281;-70
2022/01/06 01:35:30;;;;;;;10.45;2.90;;;1.90;99.90;;;;;;5073265;28;20235;-70
2022/01/06 01:37:58;;;;;;;3.10;2.30;;;2.00;99.90;;;;;;5073493;28;20204;-70
2022/01/06 01:40:25;;;;;;;6.35;2.63;;;2.00;99.90;;;;;;5073617;28;20201;-70
2022/01/06 01:42:53;;;;;;;6.30;2.78;;;2.00;99.90;;;;;;5073654;28;20204;-70
2022/01/06 01:45:26;;;;;;;6.50;2.63;;;2.10;99.90;;;;;;5074138;28;20231;-70
2022/01/06 01:47:53;;;;;;;4.05;2.60;;;2.00;99.90;;;;;;5074369;28;20204;-71
2022/01/06 01:50:21;;;;;;;6.35;2.75;;;2.10;99.90;;;;;;5074328;28;20573;-70
2022/01/06 01:52:52;;;;;;;7.40;2.80;;;2.10;99.90;;;;;;5073558;28;20229;-70
2022/01/06 01:55:22;;;;;;;4.57;3.20;;;2.00;99.90;;;;;;5073935;28;20224;-70
2022/01/06 01:57:50;;;;;;;7.22;3.15;;;2.10;99.90;;;;;;5075107;28;20196;-70
2022/01/06 02:00:20;;;;;;;6.03;3.05;;;2.10;99.90;;;;;;5073529;28;20213;-70
2022/01/06 02:02:47;;;;;;;5.13;2.55;;;2.00;99.90;;;;;;5072433;28;20672;-70
2022/01/06 02:05:13;;;;;;;3.67;3.33;;;2.00;99.90;;;;;;5072890;28;20227;-71
2022/01/06 02:07:41;;;;;;;9.18;3.80;;;2.00;99.90;;;;;;5072933;28;20223;-70
2022/01/06 02:10:12;;;;;;;3.35;2.55;;;2.00;99.90;;;;;;5072826;28;20224;-70
2022/01/06 02:12:41;;;;;;;3.38;2.53;;;2.00;99.90;;;;;;5072394;28;20255;-70
2022/01/06 02:15:10;;;;;;;4.50;2.90;;;2.00;99.90;;;;;;5072459;28;20220;-70
2022/01/06 02:17:38;;;;;;;7.40;2.95;;;1.90;99.90;;;;;;5072624;28;20208;-70
2022/01/06 02:20:09;;;;;;;5.60;3.10;;;1.90;99.90;;;;;;5072410;28;20201;-70
2022/01/06 02:22:37;;;;;;;9.52;3.10;;;1.90;99.90;;;;;;5072282;28;20204;-70
2022/01/06 02:25:14;;;;;;;5.72;3.25;;;2.00;99.90;;;;;;5072069;28;20620;-70
2022/01/06 02:27:41;;;;;;;8.75;3.17;;;2.00;99.90;;;;;;5072362;28;20200;-70
2022/01/06 02:30:10;;;;;;;4.47;2.70;;;1.90;99.90;;;;;;5072250;28;20485;-70
2022/01/06 02:32:37;;;;;;;4.57;3.30;;;1.90;99.90;;;;;;5071211;28;20221;-70
2022/01/06 02:35:08;;;;;;;5.38;3.30;;;1.90;99.90;;;;;;5072280;28;20239;-71
2022/01/06 02:37:35;;;;;;;6.38;3.17;;;1.90;99.90;;;;;;5072491;28;20200;-70
2022/01/06 02:40:02;;;;;;;5.10;2.72;;;1.90;99.90;;;;;;5072410;28;20694;-69
2022/01/06 02:42:30;;;;;;;4.40;2.58;;;2.00;99.90;;;;;;5071751;28;20192;-70
2022/01/06 02:44:57;;;;;;;3.75;2.60;;;1.90;99.90;;;;;;5072042;28;20228;-70
2022/01/06 02:47:23;;;;;;;4.70;2.95;;;1.90;99.90;;;;;;5071824;28;20616;-69
2022/01/06 02:49:50;;;;;;;5.10;2.50;;;2.00;99.90;;;;;;5072032;28;20204;-70
2022/01/06 02:52:18;;;;;;;8.30;3.33;;;2.00;99.90;;;;;;5071147;28;20232;-70
2022/01/06 02:54:45;;;;;;;7.38;2.78;;;2.00;99.90;;;;;;5071818;28;20228;-70
2022/01/06 02:57:11;;;;;;;4.10;2.85;;;2.00;99.90;;;;;;5071594;28;20215;-70
2022/01/06 02:59:38;;;;;;;3.45;2.30;;;2.00;99.90;;;;;;5071638;28;20582;-69
2022/01/06 03:02:05;;;;;;;6.95;3.15;;;1.90;99.90;;;;;;5070968;28;20204;-70
2022/01/06 03:04:31;;;;;;;2.58;2.38;;;1.90;99.90;;;;;;5071579;28;20221;-70
2022/01/06 03:06:59;;;;;;;7.03;3.05;;;1.90;99.90;;;;;;5071470;28;20200;-71
2022/01/06 03:09:38;;;;;;;3.65;2.15;;;1.90;99.90;;;;;;5071433;28;20201;-70
2022/01/06 03:12:07;;;;;;;4.78;2.80;;;1.80;99.90;;;;;;5070889;28;20223;-70
2022/01/06 03:14:34;;;;;;;4.78;3.03;;;1.70;99.90;;;;;;5071769;28;20707;-70
2022/01/06 03:17:01;;;;;;;7.03;2.20;;;1.70;99.90;;;;;;5071121;28;20233;-71
2022/01/06 03:19:27;;;;;;;4.90;2.80;;;1.70;99.90;;;;;;5071590;28;20571;-70
2022/01/06 03:21:54;;;;;;;3.40;2.50;;;1.70;99.90;;;;;;5070899;28;20193;-70
2022/01/06 03:24:21;;;;;;;3.78;2.80;;;1.70;99.90;;;;;;5071164;28;20742;-70
2022/01/06 03:26:49;;;;;;;5.97;2.80;;;1.80;99.90;;;;;;5071038;28;20223;-70
2022/01/06 03:29:15;;;;;;;2.42;2.22;;;1.80;99.90;;;;;;5071289;28;20210;-70
2022/01/06 03:31:42;;;;;;;4.85;2.42;;;1.80;99.90;;;;;;5070531;28;20220;-70
2022/01/06 03:34:11;;;;;;;4.65;2.63;;;1.90;99.90;;;;;;5070765;28;20229;-70
2022/01/06 03:36:37;;;;;;;2.58;2.35;;;1.90;99.90;;;;;;5071251;28;20613;-70
2022/01/06 03:39:05;;;;;;;4.65;3.47;;;2.00;99.90;;;;;;5070799;28;20207;-70
2022/01/06 03:41:32;;;;;;;7.70;3.10;;;2.00;99.90;;;;;;5070670;28;20196;-70
2022/01/06 03:44:01;;;;;;;3.85;2.53;;;2.00;99.90;;;;;;5069754;28;20224;-71
2022/01/06 03:46:28;;;;;;;3.53;2.45;;;2.00;99.90;;;;;;5071098;28;20211;-71
2022/01/06 03:48:54;;;;;;;4.47;2.95;;;2.00;99.90;;;;;;5070979;28;20196;-70
2022/01/06 03:51:23;;;;;;;4.35;2.63;;;2.00;99.90;;;;;;5070252;28;20220;-70
2022/01/06 03:53:50;;;;;;;2.80;2.38;;;2.00;99.90;;;;;;5070949;28;20216;-70
2022/01/06 03:56:17;;;;;;;6.40;2.88;;;2.00;99.90;;;;;;5070606;28;20742;-70
2022/01/06 03:58:44;;;;;;;3.42;2.30;;;2.00;99.90;;;;;;5070680;28;20698;-70
2022/01/06 04:01:12;;;;;;;3.85;2.70;;;2.10;99.90;;;;;;5069994;28;20205;-70
2022/01/06 04:03:39;;;;;;;6.03;2.88;;;2.10;99.90;;;;;;5070824;28;20650;-70
2022/01/06 04:06:06;;;;;;;7.15;2.80;;;2.10;99.90;;;;;;5070637;28;20210;-70
2022/01/06 04:08:33;;;;;;;5.18;2.60;;;2.10;99.90;;;;;;5070723;28;20691;-70
2022/01/06 04:10:59;;;;;;;2.95;2.30;;;2.10;99.90;;;;;;5070107;28;20200;-70
2022/01/06 04:13:26;;;;;;;5.57;2.83;;;2.10;99.90;;;;;;5070237;28;20695;-70
2022/01/06 04:15:53;;;;;;;4.70;2.85;;;2.10;99.90;;;;;;5070661;28;20291;-70
2022/01/06 04:18:21;;;;;;;5.90;2.95;;;2.10;99.90;;;;;;5070288;28;20204;-69
2022/01/06 04:20:48;;;;;;;4.03;2.60;;;2.20;99.90;;;;;;5070591;28;20208;-70
2022/01/06 04:23:14;;;;;;;5.60;3.20;;;2.20;99.90;;;;;;5070235;28;20193;-71
2022/01/06 04:25:41;;;;;;;3.00;2.30;;;2.20;99.90;;;;;;5087711;22;20192;-90
2022/01/06 04:28:08;;;;;;;5.43;3.10;;;2.20;99.90;;;;;;5039540;28;20212;-91
2022/01/06 04:30:35;;;;;;;4.78;3.08;;;2.10;99.90;;;;;;5050297;28;20666;-91
2022/01/06 04:33:02;;;;;;;3.33;2.95;;;2.10;99.90;;;;;;5058565;22;20591;-74
2022/01/06 04:35:30;;;;;;;7.22;2.72;;;2.10;99.90;;;;;;5039241;28;20273;-74
2022/01/06 04:37:57;;;;;;;4.03;2.85;;;2.10;99.90;;;;;;5050212;28;20589;-73
2022/01/06 04:40:24;;;;;;;3.13;2.83;;;2.10;99.90;;;;;;5050182;28;20204;-73
2022/01/06 04:42:50;;;;;;;5.53;3.33;;;2.10;99.90;;;;;;5049736;28;20197;-74
2022/01/06 04:45:17;;;;;;;4.05;2.55;;;2.00;99.90;;;;;;5050006;28;20221;-73
2022/01/06 04:47:44;;;;;;;5.13;2.83;;;2.00;99.90;;;;;;5049871;28;20201;-74
2022/01/06 04:50:11;;;;;;;2.90;2.65;;;2.00;99.90;;;;;;5050264;28;20208;-73
2022/01/06 04:52:39;;;;;;;5.97;2.80;;;2.00;99.90;;;;;;5049589;28;20221;-74
2022/01/06 04:55:07;;;;;;;5.35;2.95;;;2.00;99.90;;;;;;5051204;28;20232;-73
2022/01/06 04:57:34;;;;;;;4.13;3.00;;;2.00;99.90;;;;;;5054605;28;20212;-72
2022/01/06 05:00:01;;;;;;;3.10;2.80;;;2.00;99.90;;;;;;5053913;28;21069;-74
2022/01/06 05:02:27;;;;;;;3.20;2.90;;;2.00;99.90;;;;;;5053482;28;20563;-74
2022/01/06 05:04:54;;;;;;;3.95;2.97;;;2.00;99.90;;;;;;5053785;28;20712;-74
2022/01/06 05:07:21;;;;;;;3.15;2.40;;;2.00;99.90;;;;;;5053924;28;20205;-73
2022/01/06 05:09:49;;;;;;;2.92;2.60;;;2.10;99.90;;;;;;5053694;28;20208;-73
2022/01/06 05:12:16;;;;;;;6.00;2.83;;;2.10;99.90;;;;;;5053528;28;20221;-73
2022/01/06 05:14:42;;;;;;;4.55;3.30;;;2.10;99.90;;;;;;5053578;28;20232;-73
2022/01/06 05:17:09;;;;;;;6.97;2.97;;;2.10;99.90;;;;;;5053750;28;20290;-73
2022/01/06 05:19:36;;;;;;;3.85;3.05;;;2.00;99.90;;;;;;5053688;28;20212;-74
2022/01/06 05:22:03;;;;;;;3.80;2.97;;;2.00;99.90;;;;;;5052981;28;20213;-73
2022/01/06 05:24:30;;;;;;;4.53;3.55;;;2.00;99.90;;;;;;5053615;28;20221;-73
2022/01/06 05:26:58;;;;;;;2.85;2.45;;;2.00;99.90;;;;;;5053512;28;20201;-72
2022/01/06 05:29:25;;;;;;;7.60;4.07;;;2.00;99.90;;;;;;5053607;28;20201;-73
2022/01/06 05:31:52;;;;;;;5.45;4.10;;;2.00;99.90;;;;;;5052688;28;20201;-72
2022/01/06 05:34:19;;;;;;;3.22;2.75;;;1.90;99.90;;;;;;5053315;28;20233;-72
2022/01/06 05:36:46;;;;;;;5.40;2.70;;;1.90;99.90;;;;;;5053152;28;20209;-73
2022/01/06 05:39:12;;;;;;;3.60;2.95;;;1.90;99.90;;;;;;5053551;28;20197;-72
2022/01/06 05:41:39;;;;;;;4.93;2.85;;;1.90;99.90;;;;;;5052805;28;20597;-72
2022/01/06 05:44:07;;;;;;;4.85;3.00;;;1.90;99.90;;;;;;5052935;28;20229;-72
2022/01/06 05:46:34;;;;;;;4.93;3.03;;;2.00;99.90;;;;;;5053248;28;20210;-72
2022/01/06 05:49:00;;;;;;;5.05;3.28;;;2.00;99.90;;;;;;5052850;28;20208;-71
2022/01/06 05:51:27;;;;;;;5.65;3.47;;;2.00;99.90;;;;;;5052738;28;20205;-72
2022/01/06 05:53:54;;;;;;;4.60;3.08;;;1.90;99.90;;;;;;5052735;28;20225;-72
2022/01/06 05:56:21;;;;;;;3.33;3.03;;;1.90;99.90;;;;;;5052889;28;20212;-72
2022/01/06 05:58:47;;;;;;;5.07;2.75;;;1.90;99.90;;;;;;5052623;28;20582;-73
2022/01/06 06:01:15;;;;;;;6.82;2.88;;;1.80;99.90;;;;;;5052411;28;20205;-72
2022/01/06 06:03:42;;;;;;;6.40;2.90;;;1.80;99.90;;;;;;5052780;28;20224;-72
2022/01/06 06:06:09;;;;;;;3.30;2.85;;;1.80;99.90;;;;;;5052126;28;20208;-72
2022/01/06 06:08:36;;;;;;;6.07;2.95;;;1.80;99.90;;;;;;5052408;28;20216;-71
2022/01/06 06:11:02;;;;;;;3.70;2.80;;;1.80;99.90;;;;;;5051863;28;20197;-72
2022/01/06 06:13:29;;;;;;;3.42;2.83;;;1.80;99.90;;;;;;5052446;28;20720;-71
2022/01/06 06:15:56;;;;;;;3.33;2.42;;;1.80;99.90;;;;;;5052384;28;20205;-72
2022/01/06 06:18:24;;;;;;;4.38;3.38;;;1.80;99.90;;;;;;5052607;28;20201;-72
2022/01/06 06:20:51;;;;;;;4.20;2.95;;;1.80;99.90;;;;;;5052152;28;20223;-72
2022/01/06 06:23:17;;;;;;;4.60;3.60;;;1.80;99.90;;;;;;5052309;28;20571;-72
2022/01/06 06:25:44;;;;;;;4.63;2.90;;;1.80;99.90;;;;;;5052297;28;20197;-72
2022/01/06 06:28:11;;;;;;;3.60;3.10;;;1.80;99.90;;;;;;5052220;28;20206;-71
2022/01/06 06:30:38;;;;;;;3.10;2.80;;;1.90;99.90;;;;;;5052459;28;20204;-71
2022/01/06 06:33:04;;;;;;;3.78;3.30;;;1.90;99.90;;;;;;5051426;28;20228;-71
2022/01/06 06:35:32;;;;;;;3.78;3.30;;;1.90;99.90;;;;;;5052212;28;20200;-71
2022/01/06 06:37:59;;;;;;;5.75;3.20;;;1.80;99.90;;;;;;5051912;28;20628;-70
2022/01/06 06:40:26;;;;;;;3.47;3.10;;;1.90;99.90;;;;;;5052228;28;20216;-71
2022/01/06 06:42:53;;;;;;;11.65;4.10;;;1.80;99.90;;;;;;5051338;28;20677;-71
2022/01/06 06:45:22;;;;;;;4.30;2.90;;;1.80;99.90;;;;;;5051828;28;20221;-71
2022/01/06 06:47:48;;;;;;;4.68;2.60;;;1.80;99.90;;;;;;5052048;28;20205;-71
2022/01/06 06:50:16;;;;;;;3.60;3.28;;;1.80;99.90;;;;;;5051931;28;20260;-71
2022/01/06 06:52:45;;;;;;;4.85;3.90;;;1.80;99.90;;;;;;5051273;28;20696;-71
2022/01/06 06:55:13;;;;;;;3.90;3.20;;;1.80;99.90;;;;;;5051725;28;20227;-71
2022/01/06 06:57:40;;;;;;;4.65;3.25;;;1.80;99.90;;;;;;5051780;28;20201;-72
2022/01/06 07:00:10;;;;;;;3.85;2.75;;;1.80;99.90;;;;;;5051486;28;20204;-72
2022/01/06 07:02:36;;;;;;;4.20;3.33;;;1.90;99.90;;;;;;5051565;28;20511;-72
2022/01/06 07:05:04;;;;;;;3.00;2.75;;;1.90;99.90;;;;;;5051939;28;20279;-72
2022/01/06 07:07:30;;;;;;;3.88;3.45;;;1.90;99.90;;;;;;5051783;28;20208;-72
2022/01/06 07:09:59;;;;;;;4.93;3.90;;;2.00;99.90;;;;;;5051608;28;20209;-73
2022/01/06 07:12:25;;;;;;;4.22;3.83;;;2.10;99.90;;;;;;5050916;28;20205;-73
2022/01/06 07:14:52;;;;;;;4.75;2.80;;;2.20;99.90;;;;;;5051854;28;20578;-71
2022/01/06 07:17:19;;;;;;;3.17;2.88;;;2.20;99.90;;;;;;5051065;28;20205;-72
2022/01/06 07:19:46;;;;;;;5.78;3.35;;;2.20;99.90;;;;;;5051269;28;20888;-74
2022/01/06 07:22:12;;;;;;;4.53;3.00;;;2.10;99.90;;;;;;5051168;28;20212;-73
2022/01/06 07:24:39;;;;;;;3.70;2.90;;;2.10;99.90;;;;;;5051228;28;20711;-73
2022/01/06 07:27:07;;;;;;;4.10;3.15;;;2.10;99.90;;;;;;5051043;28;20201;-73
2022/01/06 07:29:34;;;;;;;3.88;2.70;;;2.10;99.90;;;;;;5051319;28;20205;-72
2022/01/06 07:32:01;;;;;;;3.58;3.17;;;2.10;99.90;;;;;;5050530;28;20201;-74
2022/01/06 07:34:27;;;;;;;3.10;2.90;;;2.10;99.90;;;;;;5050654;28;20229;-72
2022/01/06 07:36:54;;;;;;;4.40;3.40;;;2.10;99.90;;;;;;5051028;28;20209;-72
2022/01/06 07:39:21;;;;;;;4.40;3.30;;;2.10;99.90;;;;;;5051051;28;20212;-72
2022/01/06 07:41:47;;;;;;;4.28;3.70;;;2.10;99.90;;;;;;5050259;28;20208;-73
2022/01/06 07:44:15;;;;;;;3.97;3.42;;;2.10;99.90;;;;;;5050621;28;20193;-73
2022/01/06 07:46:44;;;;;;;5.18;3.40;;;2.10;99.90;;;;;;5050607;28;20612;-73
2022/01/06 07:49:11;;;;;;;4.97;3.10;;;2.10;99.90;;;;;;5051041;28;20201;-72
2022/01/06 07:51:38;;;;;;;4.28;3.88;;;2.10;99.90;;;;;;5050040;28;20208;-72
2022/01/06 07:54:06;;;;;;;3.67;2.70;;;2.10;99.90;;;;;;5050731;28;20244;-71
2022/01/06 07:56:33;;;;;;;4.55;3.20;;;2.10;99.90;;;;;;5050462;28;20197;-72
2022/01/06 07:58:59;;;;;;;3.45;2.70;;;2.20;99.90;;;;;;5050691;28;20201;-72
2022/01/06 08:01:27;;;;;;;5.88;3.40;;;2.20;99.90;;;;;;5050058;28;20232;-72
2022/01/06 08:03:54;;;;;;;4.20;3.78;;;2.30;99.90;;;;;;5050494;28;20742;-71
2022/01/06 08:06:21;;;;;;;5.15;3.50;;;2.30;99.90;;;;;;5050521;28;20204;-72
2022/01/06 08:08:48;;;;;;;3.20;2.90;;;2.40;99.90;;;;;;5050488;28;20217;-72
2022/01/06 08:11:16;;;;;;;4.55;3.45;;;2.30;99.90;;;;;;5050222;28;20219;-71
2022/01/06 08:13:42;;;;;;;3.60;2.92;;;2.40;99.90;;;;;;5050219;28;20233;-72
2022/01/06 08:16:09;;;;;;;4.38;3.33;;;2.40;99.90;;;;;;5050403;28;20197;-71
2022/01/06 08:18:38;;;;;;;3.40;3.10;;;2.40;99.90;;;;;;5050347;28;20668;-71
2022/01/06 08:21:05;;;;;;;3.40;2.70;;;2.40;99.90;;;;;;5050279;28;20201;-71
2022/01/06 08:23:31;;;;;;;3.83;2.88;;;2.50;99.90;;;;;;5050639;28;20224;-71
2022/01/06 08:26:00;;;;;;;4.57;2.80;;;3.20;99.90;;;;;;5050897;28;20699;-72
2022/01/06 08:28:26;;;;;;;8.15;4.95;;;4.20;99.90;;;;;;5050285;28;20262;-72
2022/01/06 08:30:53;;;;;;;3.78;2.83;;;5.00;99.90;;;;;;5052559;28;20221;-73
2022/01/06 08:33:20;;;;;;;3.67;3.05;;;5.80;99.90;;;;;;5054417;28;20225;-72
2022/01/06 08:35:48;;;;;;;3.17;2.80;;;6.60;99.90;;;;;;5054736;28;20209;-72
2022/01/06 08:38:14;;;;;;;7.07;2.90;;;7.10;99.90;;;;;;5054788;28;20200;-72
2022/01/06 08:40:41;;;;;;;2.78;2.58;;;7.40;99.90;;;;;;5054443;28;20587;-72
2022/01/06 08:43:08;;;;;;;5.60;3.60;;;7.90;99.90;;;;;;5054080;28;20201;-72
2022/01/06 08:45:35;;;;;;;2.90;2.60;;;8.30;99.90;;;;;;5054360;28;20224;-72
2022/01/06 08:48:02;;;;;;;3.05;2.78;;;8.70;99.90;;;;;;5054460;28;20204;-72
2022/01/06 08:50:29;;;;;;;4.00;3.60;;;9.00;99.90;;;;;;5053973;28;20613;-72
2022/01/06 08:52:58;;;;;;;4.00;3.40;;;9.30;99.90;;;;;;5053629;28;20669;-72
2022/01/06 08:55:26;;;;;;;3.83;2.63;;;9.50;99.90;;;;;;5053610;28;20577;-72
2022/01/06 08:57:52;;;;;;;6.85;3.15;;;9.70;99.90;;;;;;5053811;28;20197;-72
2022/01/06 09:00:19;;;;;;;3.00;2.33;;;9.60;99.90;;;;;;5054120;28;20609;-72
2022/01/06 09:02:46;;;;;;;4.63;2.88;;;9.30;99.90;;;;;;5053227;28;20597;-72
2022/01/06 09:05:14;;;;;;;4.10;2.90;;;8.90;99.90;;;;;;5054021;28;20213;-72
2022/01/06 09:07:41;;;;;;;4.88;2.75;;;8.40;99.90;;;;;;5053972;28;20255;-71
2022/01/06 09:10:10;;;;;;;5.05;3.40;;;7.90;99.90;;;;;;5054557;28;20201;-73
2022/01/06 09:12:37;;;;;;;4.20;2.75;;;7.60;99.90;;;;;;5052986;28;20208;-72
2022/01/06 09:15:05;;;;;;;4.95;2.80;;;7.20;99.90;;;;;;5053776;28;20730;-72
2022/01/06 09:17:35;;;;;;;3.58;2.90;;;6.90;99.90;;;;;;5053411;28;20288;-72
2022/01/06 09:20:02;;;;;;;5.28;2.80;;;6.60;99.90;;;;;;5053917;28;20570;-72
2022/01/06 09:22:28;;;;;;;3.40;2.40;;;6.40;99.90;;;;;;5053117;28;20197;-72
2022/01/06 09:24:55;;;;;;;6.40;3.40;;;6.20;99.90;;;;;;5053608;28;20248;-72
2022/01/06 09:27:24;;;;;;;4.47;3.58;;;6.30;99.90;;;;;;5053985;28;20205;-72
2022/01/06 09:29:52;;;;;;;5.35;3.28;;;6.30;99.90;;;;;;5054427;28;20233;-72
2022/01/06 09:32:19;;;;;;;3.08;2.63;;;6.70;99.90;;;;;;5053597;28;20197;-72
2022/01/06 09:34:46;;;;;;;3.55;2.70;;;7.60;99.90;;;;;;5053354;28;20601;-72
2022/01/06 09:37:13;;;;;;;6.70;2.88;;;9.20;99.90;;;;;;5053601;28;20201;-72
2022/01/06 09:39:40;;;;;;;5.28;3.40;;;10.80;99.90;;;;;;5053404;28;20221;-73
2022/01/06 09:42:07;;;;;;;4.25;2.53;;;12.70;99.90;;;;;;5052988;28;20211;-72
2022/01/06 09:44:36;;;;;;;4.97;2.72;;;14.80;99.70;;;;;;5053122;28;20228;-73
2022/01/06 09:47:04;;;;;;;2.75;2.40;;;16.30;97.10;;;;;;5052463;28;20556;-72
2022/01/06 09:49:31;;;;;;;4.87;2.50;;;16.90;95.40;;;;;;5052655;28;20201;-72
2022/01/06 09:51:58;;;;;;;3.00;2.33;;;16.40;94.70;;;;;;5051335;28;20459;-72
2022/01/06 09:54:24;;;;;;;2.85;2.08;;;14.90;95.20;;;;;;5053001;28;21009;-73
2022/01/06 09:56:51;;;;;;;6.80;2.33;;;13.80;96.60;;;;;;5052808;28;20209;-73
2022/01/06 09:59:18;;;;;;;5.70;2.30;;;12.90;96.60;;;;;;5053085;28;20676;-72
2022/01/06 10:01:46;;;;;;;5.65;2.58;;;11.70;97.60;;;;;;5052158;28;20684;-72
2022/01/06 10:04:24;;;;;;;5.00;2.20;;;10.40;98.80;;;;;;5052852;28;20220;-72
2022/01/06 10:07:01;;;;;;;3.63;2.30;;;9.40;99.90;;;;;;5052885;28;20211;-71
2022/01/06 10:09:28;;;;;;;5.88;2.40;;;8.50;99.90;;;;;;5052821;28;20216;-72
2022/01/06 10:11:57;;;;;;;5.00;2.28;;;7.80;99.90;;;;;;5052255;28;20208;-71
2022/01/06 10:14:31;;;;;;;5.20;2.72;;;7.30;99.90;;;;;;5052652;28;20257;-71
2022/01/06 10:17:00;;;;;;;5.35;2.45;;;6.90;99.90;;;;;;5052783;28;20629;-72
2022/01/06 10:19:27;;;;;;;8.38;3.33;;;6.70;99.90;;;;;;5052620;28;20204;-72
2022/01/06 10:21:57;;;;;;;4.85;2.92;;;6.40;99.90;;;;;;5051973;28;20205;-72
2022/01/06 10:24:26;;;;;;;4.30;2.40;;;6.40;99.90;;;;;;5052484;28;20221;-72
2022/01/06 10:26:55;;;;;;;4.05;2.20;;;6.30;99.90;;;;;;5120365;22;20236;-69
2022/01/06 10:29:23;;;;;;;2.85;1.98;;;6.10;99.90;;;;;;5043994;28;20205;-71
2022/01/06 10:31:50;;;;;;;4.88;2.60;;;5.90;99.90;;;;;;5032072;28;20583;-69
2022/01/06 10:34:18;;;;;;;5.07;3.00;;;5.80;99.90;;;;;;5032116;28;20709;-69
2022/01/06 10:36:48;;;;;;;4.47;2.65;;;5.70;99.90;;;;;;5032533;28;20688;-69
2022/01/06 10:39:15;;;;;;;5.63;2.95;;;5.60;99.90;;;;;;5032341;28;20297;-69
2022/01/06 10:41:42;;;;;;;6.00;2.92;;;5.60;99.90;;;;;;5031680;28;20572;-70
2022/01/06 10:44:12;;;;;;;5.57;2.75;;;5.80;99.90;;;;;;5031250;28;20317;-69
2022/01/06 10:46:41;;;;;;;4.60;3.15;;;6.00;99.90;;;;;;5031767;28;20205;-69
2022/01/06 10:49:09;;;;;;;3.97;3.45;;;6.10;99.90;;;;;;5031438;28;20212;-71
2022/01/06 10:51:42;;;;;;;5.10;2.80;;;6.40;99.90;;;;;;5031110;28;20209;-76
2022/01/06 10:54:15;;;;;;;11.45;2.75;;;6.50;99.90;;;;;;5030974;28;20605;-71
2022/01/06 10:56:43;;;;;;;5.75;3.10;;;6.50;99.90;;;;;;5031740;28;20215;-71
2022/01/06 10:59:11;;;;;;;5.03;2.63;;;6.40;99.90;;;;;;5031428;28;20583;-71
2022/01/06 11:01:38;;;;;;;6.50;3.55;;;6.10;99.90;;;;;;5031704;28;20696;-71
2022/01/06 11:04:05;;;;;;;8.70;2.85;;;5.70;99.90;;;;;;5031597;28;20279;-71
2022/01/06 11:06:32;;;;;;;5.97;2.15;;;5.30;99.90;;;;;;5030888;28;20205;-71
2022/01/06 11:09:00;;;;;;;8.98;3.72;;;5.10;99.90;;;;;;5031555;28;20229;-71
2022/01/06 11:14:26;;;;;;;3.75;2.47;;;4.80;99.90;;;;;;5029957;28;20229;-71
2022/01/06 11:16:53;;;;;;;4.80;2.80;;;4.60;99.90;;;;;;5031050;28;20677;-71
2022/01/06 11:19:23;;;;;;;10.35;2.53;;;4.50;99.90;;;;;;5031341;28;20224;-71
2022/01/06 11:21:51;;;;;;;4.53;2.65;;;4.50;99.90;;;;;;5028639;28;20588;-70
2022/01/06 11:24:20;;;;;;;4.88;2.30;;;4.50;99.90;;;;;;5021840;28;20623;-71
2022/01/06 11:26:58;;;;;;;3.63;2.70;;;4.60;99.90;;;;;;5020258;28;20206;-71
2022/01/06 11:29:27;;;;;;;6.60;3.25;;;4.70;99.90;;;;;;5023089;28;20610;-71
2022/01/06 11:31:54;;;;;;;6.13;3.00;;;4.80;99.90;;;;;;5020085;28;20233;-70
2022/01/06 11:34:21;;;;;;;7.00;2.60;;;5.10;99.90;;;;;;5022019;28;20221;-70
2022/01/06 11:36:50;;;;;;;5.63;2.83;;;6.00;99.90;;;;;;5020872;28;20194;-70
2022/01/06 11:39:27;;;;;;;5.55;2.63;;;7.10;99.90;;;;;;5014590;28;20198;-70
2022/01/06 11:41:55;;;;;;;3.95;3.10;;;7.60;99.90;;;;;;5010726;28;20209;-70
2022/01/06 11:44:24;;;;;;;6.38;3.17;;;7.70;99.90;;;;;;5010949;28;20219;-70
2022/01/06 11:46:56;;;;;;;9.88;3.20;;;7.80;99.90;;;;;;5010456;28;20305;-70
2022/01/06 11:49:34;;;;;;;8.30;2.60;;;7.50;99.90;;;;;;5010975;28;20728;-70
2022/01/06 11:52:11;;;;;;;8.88;2.67;;;7.00;99.90;;;;;;5009661;28;20209;-71
2022/01/06 11:54:50;;;;;;;6.03;2.50;;;6.60;99.90;;;;;;5011233;28;20662;-69
2022/01/06 11:57:29;;;;;;;4.70;2.30;;;6.20;99.90;;;;;;5027897;28;20217;-71
2022/01/06 11:59:55;;;;;;;4.32;2.38;;;5.80;99.90;;;;;;5030334;28;20600;-71
2022/01/06 12:02:23;;;;;;;9.55;4.63;;;5.50;99.90;;;;;;5030515;28;20201;-71
2022/01/06 12:05:00;;;;;;;11.32;3.72;;;5.20;99.90;;;;;;5030111;28;20217;-71
2022/01/06 12:07:27;;;;;;;6.95;3.25;;;5.00;99.90;;;;;;5031251;28;20203;-71
2022/01/06 12:10:02;;;;;;;6.78;2.80;;;4.80;99.90;;;;;;5030880;28;20202;-71
2022/01/06 12:12:34;;;;;;;4.80;2.60;;;4.70;99.90;;;;;;5030152;28;20205;-70
2022/01/06 12:15:12;;;;;;;8.75;3.70;;;4.60;99.90;;;;;;5030623;28;20271;-70
2022/01/06 12:17:44;;;;;;;5.75;2.58;;;4.70;99.90;;;;;;5030498;28;20704;-70
2022/01/06 12:20:11;;;;;;;3.40;2.20;;;4.80;99.90;;;;;;5030794;28;20209;-70
2022/01/06 12:22:38;;;;;;;5.68;2.20;;;5.50;99.90;;;;;;5029326;28;20202;-71
2022/01/06 12:25:07;;;;;;;5.40;2.28;;;7.00;99.90;;;;;;5030260;28;20222;-70
2022/01/06 12:27:44;;;;;;;4.68;2.40;;;8.60;99.90;;;;;;5030493;28;20592;-71
2022/01/06 12:30:13;;;;;;;9.63;3.33;;;9.70;99.90;;;;;;5030253;28;20209;-71
2022/01/06 12:32:39;;;;;;;9.38;4.60;;;9.90;99.90;;;;;;5030135;28;20209;-71
2022/01/06 12:35:07;;;;;;;8.07;2.40;;;9.50;99.90;;;;;;5029661;28;20241;-70
2022/01/06 12:37:34;;;;;;;6.20;2.40;;;9.00;99.90;;;;;;5029487;28;20198;-70
2022/01/06 12:40:00;;;;;;;4.97;2.58;;;8.70;99.90;;;;;;5029864;28;20595;-71
2022/01/06 12:42:28;;;;;;;5.70;2.40;;;8.70;99.90;;;;;;5027993;28;20202;-71
2022/01/06 12:44:55;;;;;;;7.50;2.17;;;9.10;99.90;;;;;;5030548;28;20225;-71
2022/01/06 12:47:22;;;;;;;5.60;2.40;;;9.60;99.90;;;;;;5029685;28;20298;-71
2022/01/06 12:49:49;;;;;;;3.53;1.73;;;10.00;99.80;;;;;;5030375;28;20206;-70
2022/01/06 12:52:16;;;;;;;5.28;2.33;;;10.10;99.30;;;;;;5029894;28;20788;-71
2022/01/06 12:54:43;;;;;;;3.90;2.00;;;9.90;99.90;;;;;;5035401;28;20232;-70
2022/01/06 12:57:13;;;;;;;6.60;2.67;;;9.40;99.90;;;;;;5046378;28;20205;-71
2022/01/06 12:59:45;;;;;;;7.57;2.45;;;8.90;99.90;;;;;;5029244;28;20233;-71
2022/01/06 13:02:14;;;;;;;5.53;3.88;;;8.70;99.90;;;;;;5030974;28;20251;-71
2022/01/06 13:04:43;;;;;;;6.40;2.30;;;8.60;99.90;;;;;;5029785;28;20245;-70